Terminal Aerodrome Forecast
Issued by NWS Newport/Morehead City, NC

Home | Current Version | Previous Version | Text Only | Print | Product List | Glossary On
Versions: 1 2 3 4 5 6 7 8 9 10 11 12 13 14 15 16 17 18 19 20 21 22
823
FTUS42 KMHX 031144
TAFEWN
TAF
KEWN 031144Z 0312/0412 16006KT 5SM BR BKN025
     FM031400 18012G19KT P6SM SCT025 SCT100
     FM032000 18014G22KT 6SM SHRA BKN045
     FM040100 19012G18KT 4SM SHRA BR VCTS OVC020CB=

USA.gov is the U.S. government's official web portal to all federal, state and local government web resources and services.